Time;durP1;ratioP1;P1;durP2;ratioP2;P2;SDS_P1;SDS_P2;PMS_P1;PMS_P2;Temp;Humidity;BMP_temperature;BMP_pressure;BME280_temperature;BME280_humidity;BME280_pressure;Samples;Min_cycle;Max_cycle;Signal;HPM_P1;HPM_P2
2021/01/22 00:01:59;;;;;;;54.75;28.58;;;;;;;-6.05;73.45;99364.06;5126783;28;20038;-52
2021/01/22 00:04:28;;;;;;;51.15;28.63;;;;;;;-6.37;74.05;99360.22;5126609;28;20120;-52
2021/01/22 00:06:54;;;;;;;58.35;29.63;;;;;;;-6.40;74.20;99345.84;5126698;28;20091;-52
2021/01/22 00:09:21;;;;;;;54.28;29.85;;;;;;;-6.33;73.86;99367.13;5126542;28;20247;-51
2021/01/22 00:11:46;;;;;;;57.30;28.52;;;;;;;-6.45;74.33;99363.28;5126374;28;20060;-52
2021/01/22 00:14:12;;;;;;;49.50;28.05;;;;;;;-6.19;74.04;99357.59;5126230;28;20023;-50
2021/01/22 00:16:38;;;;;;;51.35;30.15;;;;;;;-6.40;73.83;99352.56;5126682;28;20092;-51
2021/01/22 00:19:04;;;;;;;57.25;30.50;;;;;;;-6.23;74.58;99358.28;5126272;28;20027;-51
2021/01/22 00:21:30;;;;;;;51.75;27.63;;;;;;;-6.44;74.77;99354.06;5126350;28;20024;-51
2021/01/22 00:23:56;;;;;;;50.47;28.10;;;;;;;-6.38;74.55;99341.75;5126272;28;20047;-52
2021/01/22 00:26:22;;;;;;;55.92;28.15;;;;;;;-6.27;74.25;99347.19;5126146;28;20137;-52
2021/01/22 00:28:48;;;;;;;56.88;29.67;;;;;;;-6.22;74.06;99343.22;5126014;28;20044;-51
2021/01/22 00:31:13;;;;;;;55.97;29.45;;;;;;;-6.34;74.59;99335.16;5125709;28;20216;-51
2021/01/22 00:33:39;;;;;;;59.28;30.92;;;;;;;-6.21;75.08;99339.03;5126173;27;20095;-51
2021/01/22 00:36:05;;;;;;;53.78;27.83;;;;;;;-6.37;75.03;99352.69;5126018;28;20086;-51
2021/01/22 00:38:31;;;;;;;56.08;29.55;;;;;;;-6.21;75.23;99351.63;5125988;28;20027;-51
2021/01/22 00:40:57;;;;;;;59.53;29.88;;;;;;;-6.43;74.96;99344.09;5125833;28;20032;-51
2021/01/22 00:43:23;;;;;;;54.28;31.05;;;;;;;-6.51;76.58;99354.63;5125745;28;20031;-51
2021/01/22 00:45:49;;;;;;;56.22;29.27;;;;;;;-6.63;75.77;99353.31;5125956;28;20032;-51
2021/01/22 00:48:15;;;;;;;61.55;32.78;;;;;;;-6.50;76.48;99343.75;5125666;28;20048;-51
2021/01/22 00:50:40;;;;;;;56.85;30.48;;;;;;;-6.64;75.75;99361.69;5125841;27;20360;-51
2021/01/22 00:53:06;;;;;;;58.13;30.65;;;;;;;-6.65;76.63;99349.88;5125673;28;20305;-51
2021/01/22 00:55:32;;;;;;;48.80;27.73;;;;;;;-6.74;75.98;99353.66;5117131;28;20492;-52
2021/01/22 00:57:57;;;;;;;58.28;30.58;;;;;;;-6.98;76.76;99344.31;5124751;28;20197;-51
2021/01/22 01:00:23;;;;;;;57.47;29.35;;;;;;;-6.76;77.63;99346.91;5110631;28;20058;-51
2021/01/22 01:02:48;;;;;;;55.17;30.15;;;;;;;-6.80;76.79;99339.16;5125084;28;20039;-52
2021/01/22 01:05:14;;;;;;;53.35;29.08;;;;;;;-6.77;77.01;99342.69;5124603;28;20067;-51
2021/01/22 01:07:39;;;;;;;57.20;30.83;;;;;;;-6.88;77.13;99336.34;5125371;28;20043;-51
2021/01/22 01:10:06;;;;;;;55.47;29.70;;;;;;;-6.65;76.13;99339.81;5125350;28;20027;-52
2021/01/22 01:12:32;;;;;;;60.42;31.45;;;;;;;-6.61;75.99;99341.66;5124276;28;20043;-52
2021/01/22 01:14:58;;;;;;;56.50;29.60;;;;;;;-6.57;76.74;99341.78;5125340;28;20114;-51
2021/01/22 01:17:23;;;;;;;59.55;28.33;;;;;;;-6.76;77.26;99344.38;5125228;28;20050;-51
2021/01/22 01:19:49;;;;;;;54.20;28.45;;;;;;;-6.85;76.32;99336.47;5125378;28;20027;-51
2021/01/22 01:22:14;;;;;;;59.17;30.20;;;;;;;-6.62;76.16;99346.63;5124905;28;20150;-51
2021/01/22 01:24:40;;;;;;;59.63;31.88;;;;;;;-6.49;75.95;99343.81;5125244;28;20027;-52
2021/01/22 01:27:05;;;;;;;61.13;30.80;;;;;;;-6.81;76.56;99345.00;5125081;28;20057;-51
2021/01/22 01:29:31;;;;;;;67.60;33.80;;;;;;;-6.76;77.48;99346.06;5124635;28;20034;-52
2021/01/22 01:31:57;;;;;;;66.43;34.53;;;;;;;-6.71;76.89;99339.56;5124797;28;20253;-53
2021/01/22 01:34:22;;;;;;;66.55;35.70;;;;;;;-6.62;77.76;99350.00;5124867;28;20027;-52
2021/01/22 01:36:48;;;;;;;74.75;38.47;;;;;;;-6.72;76.80;99350.44;5124726;28;20072;-52
2021/01/22 01:39:13;;;;;;;73.57;40.35;;;;;;;-6.62;77.61;99360.06;5124861;28;20019;-52
2021/01/22 01:41:39;;;;;;;74.60;35.90;;;;;;;-6.61;76.42;99361.81;5123655;28;20227;-52
2021/01/22 01:44:05;;;;;;;79.28;41.03;;;;;;;-6.60;77.00;99361.03;5124722;28;20231;-52
2021/01/22 01:46:30;;;;;;;82.72;42.65;;;;;;;-6.77;78.24;99360.31;5124614;28;20240;-52
2021/01/22 01:48:57;;;;;;;79.93;42.10;;;;;;;-6.74;76.86;99358.69;5124613;28;20221;-51
2021/01/22 01:51:22;;;;;;;81.00;42.72;;;;;;;-6.63;78.04;99368.41;5124575;28;20042;-51
2021/01/22 01:53:48;;;;;;;81.35;41.28;;;;;;;-6.40;77.07;99372.72;5124549;28;20228;-51
2021/01/22 01:56:14;;;;;;;81.68;41.97;;;;;;;-6.33;76.88;99362.94;5124321;28;20322;-51
2021/01/22 01:58:40;;;;;;;79.13;42.33;;;;;;;-6.37;75.85;99348.53;5124539;28;20024;-51
2021/01/22 02:01:08;;;;;;;84.55;43.35;;;;;;;-6.68;76.71;99354.78;5124549;27;20083;-53
2021/01/22 02:03:34;;;;;;;80.10;41.13;;;;;;;-6.67;77.31;99355.66;5124177;28;20058;-52
2021/01/22 02:05:59;;;;;;;82.07;41.33;;;;;;;-6.48;76.24;99353.09;5122749;28;20048;-52
2021/01/22 02:08:25;;;;;;;79.68;40.70;;;;;;;-6.53;77.44;99343.63;5123721;28;20232;-53
2021/01/22 02:10:51;;;;;;;82.63;38.45;;;;;;;-6.71;77.56;99326.09;5123891;28;20097;-52
2021/01/22 02:13:17;;;;;;;64.80;34.65;;;;;;;-6.92;77.50;99336.16;5123960;28;20051;-52
2021/01/22 02:15:44;;;;;;;73.78;39.47;;;;;;;-6.71;78.47;99342.09;5123802;28;20028;-52
2021/01/22 02:18:10;;;;;;;72.28;37.58;;;;;;;-6.85;77.58;99338.97;5124002;28;20209;-51
2021/01/22 02:20:44;;;;;;;71.70;35.42;;;;;;;-7.16;77.92;99272.25;5124025;28;20035;-53
2021/01/22 02:23:12;;;;;;;70.80;36.38;;;;;;;-6.62;77.82;99339.94;5124446;28;20031;-52
2021/01/22 02:25:43;;;;;;;75.65;38.15;;;;;;;-6.35;77.54;99358.66;5123964;28;20020;-51
2021/01/22 02:28:14;;;;;;;74.90;38.22;;;;;;;-6.54;76.97;99367.97;5123625;28;20019;-52
2021/01/22 02:30:48;;;;;;;69.03;34.70;;;;;;;-6.51;75.94;99350.47;5123931;28;20115;-52
2021/01/22 02:33:17;;;;;;;68.03;35.03;;;;;;;-7.21;77.60;99273.72;5123460;28;20247;-52
2021/01/22 02:35:42;;;;;;;67.10;34.35;;;;;;;-6.66;77.01;99335.56;5123701;28;20028;-50
2021/01/22 02:38:10;;;;;;;71.40;33.30;;;;;;;-7.12;77.18;99274.09;5123711;28;20221;-53
2021/01/22 02:40:37;;;;;;;66.43;34.13;;;;;;;-6.61;77.15;99348.38;5123376;28;20054;-52
2021/01/22 02:43:04;;;;;;;66.95;34.42;;;;;;;-6.62;76.19;99339.94;5123774;28;20027;-52
2021/01/22 02:45:30;;;;;;;65.03;34.72;;;;;;;-6.52;76.41;99341.19;5123554;28;20028;-52
2021/01/22 02:47:56;;;;;;;72.90;35.13;;;;;;;-6.70;77.76;99340.41;5123347;27;20023;-52
2021/01/22 02:50:32;;;;;;;62.65;33.50;;;;;;;-6.63;76.75;99348.28;5123512;28;20028;-51
2021/01/22 02:53:05;;;;;;;72.25;36.30;;;;;;;-6.59;77.09;99345.09;5118559;28;20027;-52
2021/01/22 02:55:32;;;;;;;67.63;35.60;;;;;;;-6.72;78.23;99335.31;5123376;28;20027;-52
2021/01/22 02:58:03;;;;;;;68.15;34.20;;;;;;;-6.85;76.95;99336.47;5123588;28;20019;-52
2021/01/22 03:00:31;;;;;;;63.58;34.20;;;;;;;-6.57;77.90;99342.63;5123298;28;20036;-53
2021/01/22 03:03:02;;;;;;;71.05;33.60;;;;;;;-6.51;76.50;99337.00;5123271;28;20249;-52
2021/01/22 03:05:31;;;;;;;67.90;36.22;;;;;;;-7.07;77.06;99294.41;5123369;28;20051;-53
2021/01/22 03:08:07;;;;;;;62.58;33.92;;;;;;;-7.15;78.05;99273.97;5123283;28;20074;-52
2021/01/22 03:10:37;;;;;;;68.28;34.88;;;;;;;-6.89;77.13;99314.47;5114840;28;20039;-53
2021/01/22 03:13:04;;;;;;;64.47;34.92;;;;;;;-6.88;77.58;99316.19;5123013;28;20064;-52
2021/01/22 03:15:30;;;;;;;64.75;31.23;;;;;;;-6.64;76.62;99346.56;5122960;28;20095;-53
2021/01/22 03:18:19;;;;;;;65.43;32.75;;;;;;;-6.40;77.38;99365.16;5121794;28;20020;-52
2021/01/22 03:20:46;;;;;;;67.47;34.38;;;;;;;-6.48;77.26;99338.00;5116527;28;20027;-52
2021/01/22 03:23:14;;;;;;;63.30;33.25;;;;;;;-6.85;76.23;99290.31;5122825;28;20031;-52
2021/01/22 03:25:40;;;;;;;65.45;36.33;;;;;;;-6.39;76.65;99361.84;5123037;28;20045;-51
2021/01/22 03:28:05;;;;;;;71.13;38.65;;;;;;;-6.60;75.85;99350.06;5122176;28;20023;-52
2021/01/22 03:30:31;;;;;;;71.93;36.72;;;;;;;-6.68;76.92;99342.22;5122422;28;20109;-52
2021/01/22 03:32:58;;;;;;;66.22;34.42;;;;;;;-6.73;77.27;99300.88;5122670;28;20023;-52
2021/01/22 03:35:24;;;;;;;65.90;32.90;;;;;;;-6.89;76.83;99341.31;5122875;28;20028;-52
2021/01/22 03:37:49;;;;;;;65.05;34.20;;;;;;;-6.78;78.61;99342.63;5122811;28;20038;-52
2021/01/22 03:40:15;;;;;;;60.13;30.92;;;;;;;-6.69;77.95;99332.94;5122727;28;20051;-52
2021/01/22 03:42:47;;;;;;;49.05;28.40;;;;;;;-6.86;77.14;99339.75;5122675;28;20039;-53
2021/01/22 03:45:14;;;;;;;70.45;37.80;;;;;;;-7.05;77.87;99279.38;5121314;28;20031;-52
2021/01/22 03:47:40;;;;;;;77.53;38.08;;;;;;;-6.70;77.47;99340.41;5122716;28;20046;-51
2021/01/22 03:50:07;;;;;;;70.03;37.47;;;;;;;-6.54;77.91;99350.34;5122784;28;20297;-52
2021/01/22 03:52:33;;;;;;;64.05;32.45;;;;;;;-6.82;77.79;99350.84;5118489;28;20036;-52
2021/01/22 03:54:58;;;;;;;70.60;37.83;;;;;;;-6.75;78.67;99365.41;5122755;28;20087;-53
2021/01/22 03:57:24;;;;;;;78.88;37.97;;;;;;;-6.62;78.37;99376.84;5122360;28;20058;-52
2021/01/22 03:59:49;;;;;;;74.47;39.28;;;;;;;-6.36;78.45;99377.06;5122495;28;20023;-52
2021/01/22 04:02:16;;;;;;;69.90;36.90;;;;;;;-6.21;78.11;99382.75;5122185;28;20028;-52
2021/01/22 04:04:41;;;;;;;71.10;35.70;;;;;;;-6.42;78.71;99381.06;5122278;28;20063;-52
2021/01/22 04:07:07;;;;;;;79.18;37.42;;;;;;;-6.56;78.56;99384.66;5122233;28;20358;-51
2021/01/22 04:09:32;;;;;;;73.18;37.55;;;;;;;-6.64;79.30;99366.72;5122458;28;20036;-52
2021/01/22 04:11:58;;;;;;;81.25;37.97;;;;;;;-6.71;79.54;99369.78;5121671;28;20031;-52
2021/01/22 04:14:24;;;;;;;72.45;37.80;;;;;;;-7.06;81.33;99348.97;5122116;28;20087;-52
2021/01/22 04:16:57;;;;;;;78.97;40.70;;;;;;;-6.92;81.51;99338.66;5122420;28;20060;-51
2021/01/22 04:19:26;;;;;;;81.18;39.13;;;;;;;-6.92;81.86;99305.94;5122368;28;20057;-51
2021/01/22 04:21:51;;;;;;;90.78;42.47;;;;;;;-6.66;81.73;99349.81;5122309;28;20031;-52
2021/01/22 04:24:17;;;;;;;89.50;43.30;;;;;;;-6.75;81.80;99347.78;5122184;28;20335;-54
2021/01/22 04:26:46;;;;;;;86.30;39.28;;;;;;;-6.79;82.62;99336.72;5122171;28;20023;-53
2021/01/22 04:29:12;;;;;;;89.88;42.78;;;;;;;-6.94;82.76;99346.13;5112773;28;20062;-54
2021/01/22 04:31:39;;;;;;;93.18;43.25;;;;;;;-6.76;82.20;99371.22;5114078;28;20027;-54
2021/01/22 04:34:05;;;;;;;96.97;45.08;;;;;;;-6.94;83.35;99347.00;5122106;28;20372;-53
2021/01/22 04:36:30;;;;;;;87.35;42.10;;;;;;;-6.74;81.93;99351.16;5121941;28;20077;-56
2021/01/22 04:38:56;;;;;;;92.70;44.13;;;;;;;-6.69;82.90;99349.69;5124645;28;20069;-53
2021/01/22 04:41:22;;;;;;;88.40;43.08;;;;;;;-6.72;83.95;99344.53;5125346;28;20023;-52
2021/01/22 04:43:47;;;;;;;93.97;46.92;;;;;;;-6.61;82.40;99350.88;5111529;28;20054;-53
2021/01/22 04:46:16;;;;;;;100.20;43.30;;;;;;;-6.55;83.21;99360.34;5122277;28;20021;-54
2021/01/22 04:48:41;;;;;;;106.85;46.25;;;;;;;-6.52;82.94;99356.28;5124645;28;20039;-53
2021/01/22 04:51:08;;;;;;;96.20;45.30;;;;;;;-6.60;83.39;99352.59;5113008;28;20189;-52
2021/01/22 04:53:35;;;;;;;96.72;43.38;;;;;;;-6.65;83.42;99346.53;5117190;28;20027;-52
2021/01/22 04:56:03;;;;;;;130.15;48.58;;;;;;;-6.59;84.32;99349.28;5125491;28;20031;-53
2021/01/22 04:58:32;;;;;;;77.50;30.48;;;;;;;-6.66;83.44;99354.84;5125185;28;20034;-53
2021/01/22 05:00:59;;;;;;;106.18;45.70;;;;;;;-6.54;84.23;99351.97;5125428;28;20186;-53
2021/01/22 05:03:28;;;;;;;104.35;45.03;;;;;;;-6.73;85.33;99338.63;5125173;28;20019;-53
2021/01/22 05:06:00;;;;;;;114.05;47.53;;;;;;;-6.62;86.20;99331.53;5125191;28;20240;-54
2021/01/22 05:08:25;;;;;;;111.20;45.10;;;;;;;-6.82;85.78;99333.22;5125102;28;20035;-53
2021/01/22 05:10:51;;;;;;;118.10;47.85;;;;;;;-6.65;85.59;99339.81;5124894;28;20031;-53
2021/01/22 05:13:17;;;;;;;110.85;46.97;;;;;;;-6.39;85.32;99344.22;5124770;28;20031;-52
2021/01/22 05:16:02;;;;;;;115.28;46.63;;;;;;;-6.57;84.84;99334.22;5125204;28;20174;-53
2021/01/22 05:18:31;;;;;;;111.60;54.25;;;;;;;-6.30;83.91;99339.53;5124957;28;20309;-53
2021/01/22 05:21:05;;;;;;;105.22;47.17;;;;;;;-6.20;83.21;99343.28;5125057;28;20046;-52
2021/01/22 05:23:37;;;;;;;117.18;48.05;;;;;;;-6.39;84.24;99352.63;5123538;28;20098;-53
2021/01/22 05:26:14;;;;;;;125.63;50.40;;;;;;;-6.31;84.10;99348.75;5125035;28;20221;-53
2021/01/22 05:28:40;;;;;;;114.75;48.03;;;;;;;-6.18;83.49;99352.63;5112866;28;20042;-52
2021/01/22 05:31:07;;;;;;;129.23;49.33;;;;;;;-6.17;84.78;99351.84;5112965;28;20062;-52
2021/01/22 05:33:33;;;;;;;123.18;48.60;;;;;;;-6.20;84.10;99344.13;5116198;28;20105;-53
2021/01/22 05:36:18;;;;;;;133.55;49.30;;;;;;;-6.19;84.67;99358.47;5124840;28;20023;-53
2021/01/22 05:38:44;;;;;;;118.55;47.65;;;;;;;-6.12;84.57;99357.06;5124225;28;20189;-52
2021/01/22 05:41:09;;;;;;;122.35;47.55;;;;;;;-6.04;84.69;99359.88;5124630;28;20085;-54
2021/01/22 05:43:37;;;;;;;119.50;48.13;;;;;;;-6.48;84.71;99287.63;5124522;28;20293;-52
2021/01/22 05:46:04;;;;;;;114.90;44.08;;;;;;;-6.09;83.16;99350.44;5124465;28;20091;-52
2021/01/22 05:48:30;;;;;;;137.80;49.28;;;;;;;-6.07;83.79;99346.34;5124203;28;20031;-52
2021/01/22 05:51:00;;;;;;;124.88;47.03;;;;;;;-6.11;84.97;99353.75;5123776;28;20077;-54
2021/01/22 05:53:27;;;;;;;129.55;49.40;;;;;;;-6.01;83.60;99337.28;5124431;28;20099;-53
2021/01/22 05:56:09;;;;;;;122.95;45.40;;;;;;;-6.15;85.84;99335.09;5124583;28;20019;-53
2021/01/22 05:58:36;;;;;;;119.90;46.88;;;;;;;-6.19;84.86;99340.81;5116335;28;20032;-53
2021/01/22 06:01:11;;;;;;;129.40;47.88;;;;;;;-6.06;85.50;99342.16;5123997;28;20089;-52
2021/01/22 06:03:39;;;;;;;134.77;49.08;;;;;;;-5.99;85.51;99359.25;5123751;28;20027;-53
2021/01/22 06:06:08;;;;;;;131.57;48.60;;;;;;;-6.02;85.45;99340.63;5124257;28;20080;-54
2021/01/22 06:08:47;;;;;;;124.18;47.53;;;;;;;-6.27;85.48;99267.47;5115987;28;20032;-54
2021/01/22 06:11:15;;;;;;;126.70;47.55;;;;;;;-5.82;85.09;99341.38;5117370;28;20036;-52
2021/01/22 06:13:44;;;;;;;133.15;49.92;;;;;;;-5.90;84.32;99330.97;5123904;27;20059;-54
2021/01/22 06:16:14;;;;;;;127.70;50.05;;;;;;;-5.72;83.13;99341.75;5124051;28;20080;-52
2021/01/22 06:18:46;;;;;;;125.95;47.78;;;;;;;-5.48;83.78;99355.25;5123839;28;20035;-53
2021/01/22 06:21:14;;;;;;;135.68;49.10;;;;;;;-5.81;83.02;99283.44;5123889;28;20247;-51
2021/01/22 06:23:40;;;;;;;135.82;46.42;;;;;;;-5.57;84.63;99341.50;5124101;28;20114;-53
2021/01/22 06:26:06;;;;;;;123.93;49.22;;;;;;;-5.47;82.36;99332.63;5123542;28;20226;-53
2021/01/22 06:28:33;;;;;;;130.00;49.90;;;;;;;-5.47;82.36;99337.66;5114988;28;20023;-54
2021/01/22 06:30:59;;;;;;;132.82;51.85;;;;;;;-5.49;82.75;99330.84;5118344;28;20145;-53
2021/01/22 06:33:24;;;;;;;133.77;50.25;;;;;;;-5.44;83.80;99335.25;5123906;28;20320;-53
2021/01/22 06:35:51;;;;;;;126.40;48.53;;;;;;;-5.88;82.19;99268.03;5123641;27;20027;-55
2021/01/22 06:38:21;;;;;;;127.32;50.40;;;;;;;-5.84;83.56;99265.69;5123401;28;20026;-53
2021/01/22 06:40:46;;;;;;;140.18;51.95;;;;;;;-5.73;84.62;99327.47;5123416;28;20031;-53
2021/01/22 06:43:12;;;;;;;146.75;53.08;;;;;;;-5.65;83.29;99330.25;5123695;28;20216;-53
2021/01/22 06:45:38;;;;;;;150.10;52.90;;;;;;;-5.87;83.70;99331.13;5123576;28;20031;-53
2021/01/22 06:48:08;;;;;;;153.32;54.88;;;;;;;-5.64;83.95;99331.97;5123630;28;20107;-53
2021/01/22 06:50:36;;;;;;;136.68;52.63;;;;;;;-5.43;83.60;99321.84;5123126;28;20061;-52
2021/01/22 06:53:13;;;;;;;138.32;51.75;;;;;;;-5.22;83.07;99333.50;5117142;28;20145;-52
2021/01/22 06:55:53;;;;;;;150.63;50.67;;;;;;;-5.38;83.31;99329.56;5117113;28;20024;-52
2021/01/22 06:58:30;;;;;;;142.73;51.00;;;;;;;-5.31;82.35;99336.56;5117154;28;20051;-53
2021/01/22 07:00:59;;;;;;;114.72;37.97;;;;;;;-5.48;83.69;99310.69;5116396;28;20023;-52
2021/01/22 07:03:37;;;;;;;153.23;53.45;;;;;;;-5.48;83.66;99310.69;5118288;28;20028;-53
2021/01/22 07:06:07;;;;;;;141.68;51.92;;;;;;;-5.38;83.58;99309.38;5116785;28;20046;-53
2021/01/22 07:08:55;;;;;;;138.27;49.15;;;;;;;-5.48;83.71;99315.75;5113925;28;20059;-52
2021/01/22 07:11:21;;;;;;;164.23;56.17;;;;;;;-5.66;85.76;99305.81;5103137;28;20115;-52
2021/01/22 07:13:47;;;;;;;139.18;51.35;;;;;;;-5.62;84.99;99314.38;5121810;28;20058;-52
2021/01/22 07:16:18;;;;;;;153.18;54.95;;;;;;;-5.44;85.54;99314.22;5122560;28;20051;-52
2021/01/22 07:18:45;;;;;;;156.45;53.63;;;;;;;-5.29;83.74;99306.31;5122985;28;20027;-52
2021/01/22 07:21:36;;;;;;;167.15;54.70;;;;;;;-5.59;84.97;99317.00;5122653;28;20027;-52
2021/01/22 07:24:15;;;;;;;148.23;53.07;;;;;;;-5.58;87.09;99308.66;5121710;28;20094;-52
2021/01/22 07:26:44;;;;;;;158.15;53.28;;;;;;;-5.55;86.71;99313.81;5115643;28;20329;-52
2021/01/22 07:29:23;;;;;;;172.40;55.95;;;;;;;-5.52;86.44;99338.28;5122315;28;20070;-53
2021/01/22 07:31:50;;;;;;;166.23;56.53;;;;;;;-5.41;87.33;99310.13;5122772;28;20052;-53
2021/01/22 07:34:37;;;;;;;165.38;57.00;;;;;;;-5.11;85.27;99314.53;5122643;28;20024;-52
2021/01/22 07:37:04;;;;;;;168.38;57.90;;;;;;;-5.13;85.30;99328.78;5122811;28;20031;-53
2021/01/22 07:39:30;;;;;;;144.13;49.83;;;;;;;-4.99;84.64;99325.88;5121468;28;20062;-52
2021/01/22 07:42:23;;;;;;;166.18;57.60;;;;;;;-4.90;83.46;99332.13;5122835;28;20047;-53
2021/01/22 07:44:51;;;;;;;152.38;52.83;;;;;;;-4.99;83.27;99298.09;5114898;28;20233;-52
2021/01/22 07:47:28;;;;;;;160.73;54.63;;;;;;;-5.10;83.34;99270.84;5122868;28;20055;-53
2021/01/22 07:49:59;;;;;;;145.93;51.90;;;;;;;-4.68;82.32;99351.38;5122494;28;20076;-53
2021/01/22 07:52:26;;;;;;;154.35;51.53;;;;;;;-4.60;82.55;99340.66;5122477;28;20028;-53
2021/01/22 07:54:52;;;;;;;135.35;52.20;;;;;;;-4.48;82.61;99345.28;5122662;28;20480;-53
2021/01/22 07:57:21;;;;;;;140.15;51.42;;;;;;;-4.55;81.89;99361.91;5122364;28;20023;-53
2021/01/22 07:59:48;;;;;;;153.02;53.40;;;;;;;-4.98;82.60;99262.81;5122439;28;20028;-53
2021/01/22 08:02:15;;;;;;;146.07;53.78;;;;;;;-4.53;82.44;99335.88;5122119;28;20220;-53
2021/01/22 08:04:41;;;;;;;151.80;54.08;;;;;;;-4.46;82.41;99319.28;5122416;28;20053;-53
2021/01/22 08:07:06;;;;;;;150.85;53.90;;;;;;;-4.51;81.30;99334.25;5122682;28;20023;-53
2021/01/22 08:09:32;;;;;;;155.95;55.90;;;;;;;-4.32;81.81;99324.75;5122402;28;20380;-53
2021/01/22 08:12:09;;;;;;;156.95;53.70;;;;;;;-4.17;81.31;99337.03;5122287;28;20020;-53
2021/01/22 08:14:36;;;;;;;145.40;54.90;;;;;;;-4.10;81.62;99331.38;5126244;28;20032;-53
2021/01/22 08:17:06;;;;;;;152.10;53.58;;;;;;;-4.61;81.04;99273.28;5126233;28;20434;-52
2021/01/22 08:19:33;;;;;;;165.15;57.30;;;;;;;-4.16;81.10;99328.66;5126055;28;20324;-53
2021/01/22 08:22:00;;;;;;;169.18;60.83;;;;;;;-4.17;81.50;99331.97;5126143;28;20027;-53
2021/01/22 08:24:26;;;;;;;157.63;57.92;;;;;;;-4.21;82.26;99325.09;5126415;28;20320;-53
2021/01/22 08:26:59;;;;;;;168.25;58.53;;;;;;;-4.35;82.18;99343.22;5126299;28;20019;-52
2021/01/22 08:29:26;;;;;;;179.38;59.53;;;;;;;-4.35;81.93;99330.59;5125331;28;20027;-53
2021/01/22 08:31:53;;;;;;;180.73;59.20;;;;;;;-4.31;82.47;99316.38;5124713;28;20194;-52
2021/01/22 08:34:19;;;;;;;159.82;54.65;;;;;;;-4.50;82.86;99319.97;5125866;27;20030;-52
2021/01/22 08:36:46;;;;;;;186.30;62.03;;;;;;;-4.42;83.07;99321.06;5125728;28;20250;-53
2021/01/22 08:39:12;;;;;;;174.63;62.05;;;;;;;-4.40;83.33;99324.50;5125880;28;20031;-53
2021/01/22 08:41:37;;;;;;;185.65;60.25;;;;;;;-4.26;84.10;99334.19;5126254;28;20047;-53
2021/01/22 08:44:03;;;;;;;182.18;62.65;;;;;;;-4.13;83.36;99320.28;5125461;28;20422;-53
2021/01/22 08:46:29;;;;;;;175.55;62.72;;;;;;;-4.01;82.15;99313.94;5125369;28;20066;-53
2021/01/22 08:48:54;;;;;;;170.05;59.85;;;;;;;-3.84;82.43;99326.25;5109295;28;20254;-52
2021/01/22 08:51:30;;;;;;;180.15;62.33;;;;;;;-3.83;81.67;99327.97;5115684;28;20306;-52
2021/01/22 08:53:57;;;;;;;194.23;64.82;;;;;;;-4.13;82.43;99325.34;5125629;28;20024;-52
2021/01/22 08:56:23;;;;;;;177.27;60.25;;;;;;;-3.97;83.67;99325.03;5125415;28;20015;-52
2021/01/22 08:59:06;;;;;;;184.60;60.80;;;;;;;-3.95;82.62;99336.03;5124145;28;20354;-52
2021/01/22 09:01:54;;;;;;;172.25;59.35;;;;;;;-3.80;82.56;99320.47;5117067;28;20027;-52
2021/01/22 09:04:27;;;;;;;178.05;65.93;;;;;;;-3.71;82.70;99315.66;5125411;28;20111;-53
2021/01/22 09:06:58;;;;;;;182.00;62.97;;;;;;;-4.05;82.66;99248.06;5124123;28;20036;-54
2021/01/22 09:09:40;;;;;;;189.40;65.63;;;;;;;-3.60;82.56;99313.47;5125381;28;20051;-52
2021/01/22 09:12:34;;;;;;;170.95;58.35;;;;;;;-3.51;81.82;99313.72;5124232;28;20098;-53
2021/01/22 09:15:04;;;;;;;178.88;61.95;;;;;;;-3.54;82.55;99315.31;5125652;28;20032;-53
2021/01/22 09:17:44;;;;;;;168.43;60.63;;;;;;;-3.54;81.94;99280.75;5125189;28;20264;-53
2021/01/22 09:20:24;;;;;;;182.35;63.00;;;;;;;-3.47;82.26;99292.75;5122396;28;20335;-52
2021/01/22 09:22:52;;;;;;;185.15;63.78;;;;;;;-3.62;82.64;99294.00;5119358;28;20115;-53
2021/01/22 09:25:19;;;;;;;187.90;66.72;;;;;;;-3.75;82.09;99298.69;5118410;28;20106;-53
2021/01/22 09:27:46;;;;;;;206.68;68.07;;;;;;;-3.63;83.09;99300.75;5115458;28;20311;-52
2021/01/22 09:30:17;;;;;;;177.95;63.03;;;;;;;-3.97;82.35;99251.69;5118599;28;20034;-52
2021/01/22 09:32:48;;;;;;;180.30;61.93;;;;;;;-3.68;82.84;99276.97;5121771;28;20095;-52
2021/01/22 09:35:15;;;;;;;177.27;63.15;;;;;;;-3.40;82.03;99305.59;5124904;28;20023;-52
2021/01/22 09:37:41;;;;;;;196.18;66.63;;;;;;;-3.52;82.43;99301.03;5124632;28;20110;-53
2021/01/22 09:40:08;;;;;;;208.15;68.22;;;;;;;-3.31;82.42;99295.72;5124487;28;20028;-52
2021/01/22 09:42:34;;;;;;;186.23;64.28;;;;;;;-3.23;82.11;99298.47;5116741;28;20328;-53
2021/01/22 09:45:00;;;;;;;178.35;63.00;;;;;;;-3.39;82.27;99297.16;5124758;28;20041;-53
2021/01/22 09:47:26;;;;;;;175.18;64.55;;;;;;;-3.19;81.78;99290.13;5124667;28;20054;-53
2021/01/22 09:49:51;;;;;;;147.02;49.03;;;;;;;-3.37;82.24;99285.44;5124704;28;20049;-52
2021/01/22 09:52:17;;;;;;;189.55;63.47;;;;;;;-3.31;82.14;99291.53;5124523;28;20027;-52
2021/01/22 09:54:45;;;;;;;179.80;64.53;;;;;;;-3.12;82.68;99287.81;5124590;28;20109;-51
2021/01/22 09:57:11;;;;;;;192.40;64.93;;;;;;;-3.00;82.41;99292.34;5124461;28;20019;-52
2021/01/22 09:59:37;;;;;;;186.15;63.53;;;;;;;-2.91;81.70;99289.19;5124418;28;20043;-54
2021/01/22 10:02:03;;;;;;;196.45;65.68;;;;;;;-2.81;82.05;99302.97;5123762;28;20028;-53
2021/01/22 10:04:29;;;;;;;189.60;66.57;;;;;;;-2.98;81.70;99280.59;5122039;28;20302;-52
2021/01/22 10:06:54;;;;;;;192.52;66.20;;;;;;;-2.86;82.10;99285.13;5109306;28;20039;-53
2021/01/22 10:09:20;;;;;;;195.60;66.22;;;;;;;-2.79;81.55;99276.84;5112178;28;20045;-53
2021/01/22 10:11:46;;;;;;;189.85;67.30;;;;;;;-2.80;81.27;99276.81;5108947;28;20313;-52
2021/01/22 10:14:12;;;;;;;193.95;66.43;;;;;;;-2.86;82.36;99267.38;5123497;28;20301;-53
2021/01/22 10:16:38;;;;;;;188.50;64.40;;;;;;;-3.00;83.08;99261.09;5122770;28;20090;-53
2021/01/22 10:19:04;;;;;;;194.75;64.90;;;;;;;-2.88;82.43;99270.69;5123710;28;20194;-54
2021/01/22 10:21:30;;;;;;;212.98;71.57;;;;;;;-3.10;82.86;99260.00;5123700;28;20047;-52
2021/01/22 10:23:56;;;;;;;211.90;68.70;;;;;;;-2.95;83.29;99252.81;5123981;28;20027;-52
2021/01/22 10:26:23;;;;;;;190.90;64.78;;;;;;;-2.97;83.39;99249.38;5123713;28;20091;-54
2021/01/22 10:28:49;;;;;;;195.10;65.68;;;;;;;-2.98;83.53;99252.75;5117990;28;20225;-53
2021/01/22 10:31:16;;;;;;;200.93;66.45;;;;;;;-3.18;83.75;99243.75;5108051;28;20028;-53
2021/01/22 10:33:42;;;;;;;202.20;68.13;;;;;;;-3.15;84.48;99246.34;5123615;28;20028;-53
2021/01/22 10:36:08;;;;;;;213.32;70.78;;;;;;;-3.33;85.19;99241.69;5123557;28;20046;-52
2021/01/22 10:38:35;;;;;;;203.35;71.43;;;;;;;-3.21;85.17;99224.25;5122500;27;20112;-53
2021/01/22 10:41:01;;;;;;;194.27;64.43;;;;;;;-2.81;84.33;99237.09;5105644;28;20028;-53
2021/01/22 10:43:27;;;;;;;206.10;71.82;;;;;;;-2.72;84.08;99229.72;5123189;28;20039;-53
2021/01/22 10:45:54;;;;;;;208.43;71.72;;;;;;;-2.75;83.28;99222.06;5123711;28;20061;-53
2021/01/22 10:48:20;;;;;;;184.55;66.55;;;;;;;-2.58;83.08;99226.66;5123186;28;20348;-54
2021/01/22 10:50:48;;;;;;;181.95;63.42;;;;;;;-2.56;83.01;99235.16;5123303;28;20099;-53
2021/01/22 10:53:14;;;;;;;205.57;69.32;;;;;;;-2.81;83.47;99242.16;5123247;28;20027;-53
2021/01/22 10:55:42;;;;;;;213.75;69.50;;;;;;;-2.60;83.35;99240.13;5122835;28;20058;-53
2021/01/22 10:58:08;;;;;;;192.00;66.75;;;;;;;-2.43;83.17;99244.78;5123253;28;20073;-54
2021/01/22 11:00:34;;;;;;;200.30;68.70;;;;;;;-2.48;82.61;99241.25;5119428;28;20065;-53
2021/01/22 11:03:01;;;;;;;195.10;67.85;;;;;;;-2.34;82.74;99239.06;5118157;28;20322;-53
2021/01/22 11:05:26;;;;;;;193.35;64.38;;;;;;;-2.27;82.15;99231.63;5123024;28;20047;-53
2021/01/22 11:07:52;;;;;;;194.07;67.78;;;;;;;-2.20;82.13;99245.28;5122841;28;20039;-53
2021/01/22 11:10:18;;;;;;;193.38;66.60;;;;;;;-2.09;81.64;99240.47;5123088;28;20224;-54
2021/01/22 11:12:43;;;;;;;199.10;70.30;;;;;;;-2.25;82.49;99241.81;5122778;28;20116;-52
2021/01/22 11:15:09;;;;;;;179.45;66.65;;;;;;;-2.39;81.84;99233.88;5122934;28;20030;-52
2021/01/22 11:17:35;;;;;;;199.40;73.50;;;;;;;-2.37;82.72;99236.44;5122679;28;20305;-53